sensor_id;sensor_type;location;lat;lon;timestamp;pressure;altitude;pressure_sealevel;temperature;humidity
19736;BME280;32064;49.310;8.646;2023-05-16T00:00:53;100238.97;;;17.33;74.15
19736;BME280;32064;49.310;8.646;2023-05-16T00:03:19;100241.63;;;17.33;75.06
19736;BME280;32064;49.310;8.646;2023-05-16T00:05:44;100244.44;;;17.31;75.35
19736;BME280;32064;49.310;8.646;2023-05-16T00:08:10;100246.31;;;17.39;74.60
19736;BME280;32064;49.310;8.646;2023-05-16T00:10:35;100242.34;;;17.43;73.79
19736;BME280;32064;49.310;8.646;2023-05-16T00:13:02;100240.69;;;17.42;73.57
19736;BME280;32064;49.310;8.646;2023-05-16T00:15:28;100241.97;;;17.38;72.38
19736;BME280;32064;49.310;8.646;2023-05-16T00:17:55;100240.94;;;17.31;72.48
19736;BME280;32064;49.310;8.646;2023-05-16T00:20:26;100236.06;;;17.26;72.68
19736;BME280;32064;49.310;8.646;2023-05-16T00:22:53;100235.56;;;17.22;71.64
19736;BME280;32064;49.310;8.646;2023-05-16T00:25:19;100234.50;;;17.15;71.58
19736;BME280;32064;49.310;8.646;2023-05-16T00:27:45;100234.28;;;17.09;72.29
19736;BME280;32064;49.310;8.646;2023-05-16T00:30:10;100230.94;;;17.06;71.75
19736;BME280;32064;49.310;8.646;2023-05-16T00:32:36;100236.25;;;17.06;72.69
19736;BME280;32064;49.310;8.646;2023-05-16T00:35:02;100222.97;;;17.06;72.26
19736;BME280;32064;49.310;8.646;2023-05-16T00:37:28;100225.25;;;17.01;72.29
19736;BME280;32064;49.310;8.646;2023-05-16T00:39:53;100228.28;;;17.06;71.59
19736;BME280;32064;49.310;8.646;2023-05-16T00:42:19;100224.66;;;17.08;71.44
19736;BME280;32064;49.310;8.646;2023-05-16T00:44:46;100231.47;;;17.10;70.92
19736;BME280;32064;49.310;8.646;2023-05-16T00:47:11;100229.41;;;17.04;71.76
19736;BME280;32064;49.310;8.646;2023-05-16T00:49:37;100228.06;;;17.00;73.14
19736;BME280;32064;49.310;8.646;2023-05-16T00:52:02;100234.91;;;17.02;72.74
19736;BME280;32064;49.310;8.646;2023-05-16T00:54:29;100232.06;;;17.04;71.93
19736;BME280;32064;49.310;8.646;2023-05-16T00:56:55;100231.53;;;17.00;73.31
19736;BME280;32064;49.310;8.646;2023-05-16T00:59:21;100229.38;;;16.96;72.95
19736;BME280;32064;49.310;8.646;2023-05-16T01:01:51;100242.81;;;16.94;72.29
19736;BME280;32064;49.310;8.646;2023-05-16T01:04:17;100230.34;;;16.95;72.95
19736;BME280;32064;49.310;8.646;2023-05-16T01:06:44;100225.72;;;16.97;73.07
19736;BME280;32064;49.310;8.646;2023-05-16T01:09:10;100226.78;;;16.86;72.37
19736;BME280;32064;49.310;8.646;2023-05-16T01:11:51;100241.69;;;16.79;72.82
19736;BME280;32064;49.310;8.646;2023-05-16T01:20:24;100233.53;;;16.80;73.69
19736;BME280;32064;49.310;8.646;2023-05-16T01:26:21;100230.47;;;16.75;72.97
19736;BME280;32064;49.310;8.646;2023-05-16T01:28:47;100239.03;;;16.69;73.72
19736;BME280;32064;49.310;8.646;2023-05-16T01:31:13;100238.22;;;16.69;74.00
19736;BME280;32064;49.310;8.646;2023-05-16T01:33:39;100231.06;;;16.69;72.91
19736;BME280;32064;49.310;8.646;2023-05-16T01:39:04;100234.88;;;16.67;74.84
19736;BME280;32064;49.310;8.646;2023-05-16T01:42:00;100230.47;;;16.75;74.35
19736;BME280;32064;49.310;8.646;2023-05-16T01:44:44;100235.84;;;16.66;73.28
19736;BME280;32064;49.310;8.646;2023-05-16T01:47:15;100236.38;;;16.69;74.39
19736;BME280;32064;49.310;8.646;2023-05-16T01:52:45;100240.94;;;16.59;74.60
19736;BME280;32064;49.310;8.646;2023-05-16T01:55:22;100243.66;;;16.67;74.50
19736;BME280;32064;49.310;8.646;2023-05-16T01:57:49;100249.84;;;16.68;74.94
19736;BME280;32064;49.310;8.646;2023-05-16T02:00:16;100242.44;;;16.61;74.74
19736;BME280;32064;49.310;8.646;2023-05-16T02:02:42;100249.13;;;16.66;73.59
19736;BME280;32064;49.310;8.646;2023-05-16T02:05:08;100247.47;;;16.65;74.05
19736;BME280;32064;49.310;8.646;2023-05-16T02:07:33;100249.75;;;16.59;75.10
19736;BME280;32064;49.310;8.646;2023-05-16T02:09:58;100255.44;;;16.65;74.11
19736;BME280;32064;49.310;8.646;2023-05-16T02:12:24;100260.47;;;16.68;75.04
19736;BME280;32064;49.310;8.646;2023-05-16T02:14:50;100250.97;;;16.65;74.54
19736;BME280;32064;49.310;8.646;2023-05-16T02:17:15;100263.78;;;16.70;73.80
19736;BME280;32064;49.310;8.646;2023-05-16T02:19:40;100254.53;;;16.74;73.58
19736;BME280;32064;49.310;8.646;2023-05-16T02:22:06;100258.75;;;16.76;74.35
19736;BME280;32064;49.310;8.646;2023-05-16T02:24:31;100261.72;;;16.64;73.89
19736;BME280;32064;49.310;8.646;2023-05-16T02:26:57;100258.03;;;16.56;75.19
19736;BME280;32064;49.310;8.646;2023-05-16T02:29:22;100257.56;;;16.61;75.01
19736;BME280;32064;49.310;8.646;2023-05-16T02:31:47;100257.47;;;16.53;74.24
19736;BME280;32064;49.310;8.646;2023-05-16T02:34:13;100254.97;;;16.51;75.39
19736;BME280;32064;49.310;8.646;2023-05-16T02:36:39;100261.13;;;16.52;74.45
19736;BME280;32064;49.310;8.646;2023-05-16T02:39:05;100254.16;;;16.51;75.19
19736;BME280;32064;49.310;8.646;2023-05-16T02:41:31;100256.63;;;16.52;74.99
19736;BME280;32064;49.310;8.646;2023-05-16T02:43:57;100262.41;;;16.48;75.17
19736;BME280;32064;49.310;8.646;2023-05-16T02:46:31;100269.00;;;16.44;74.95
19736;BME280;32064;49.310;8.646;2023-05-16T02:48:57;100263.16;;;16.40;74.86
19736;BME280;32064;49.310;8.646;2023-05-16T02:51:26;100265.50;;;16.43;75.31
19736;BME280;32064;49.310;8.646;2023-05-16T02:53:52;100262.44;;;16.38;75.09
19736;BME280;32064;49.310;8.646;2023-05-16T02:56:19;100262.16;;;16.41;75.23
19736;BME280;32064;49.310;8.646;2023-05-16T02:58:47;100257.84;;;16.40;76.62
19736;BME280;32064;49.310;8.646;2023-05-16T03:01:13;100263.97;;;16.41;75.46
19736;BME280;32064;49.310;8.646;2023-05-16T03:03:40;100268.47;;;16.40;76.48
19736;BME280;32064;49.310;8.646;2023-05-16T03:06:05;100264.81;;;16.41;75.27
19736;BME280;32064;49.310;8.646;2023-05-16T03:08:31;100266.09;;;16.37;75.63
19736;BME280;32064;49.310;8.646;2023-05-16T03:10:56;100265.00;;;16.30;75.67
19736;BME280;32064;49.310;8.646;2023-05-16T03:13:22;100259.03;;;16.28;76.71
19736;BME280;32064;49.310;8.646;2023-05-16T03:15:47;100269.56;;;16.20;75.89
19736;BME280;32064;49.310;8.646;2023-05-16T03:18:13;100274.47;;;16.14;77.14
19736;BME280;32064;49.310;8.646;2023-05-16T03:20:38;100271.06;;;16.22;76.40
19736;BME280;32064;49.310;8.646;2023-05-16T03:23:04;100272.22;;;16.20;76.56
19736;BME280;32064;49.310;8.646;2023-05-16T03:25:36;100277.84;;;16.07;76.01
19736;BME280;32064;49.310;8.646;2023-05-16T03:28:04;100281.44;;;16.15;76.12
19736;BME280;32064;49.310;8.646;2023-05-16T03:30:29;100267.91;;;16.09;75.97
19736;BME280;32064;49.310;8.646;2023-05-16T03:32:55;100279.22;;;16.11;76.53
19736;BME280;32064;49.310;8.646;2023-05-16T03:35:20;100276.72;;;16.09;76.55
19736;BME280;32064;49.310;8.646;2023-05-16T03:37:46;100285.69;;;15.99;76.83
19736;BME280;32064;49.310;8.646;2023-05-16T03:40:12;100289.16;;;15.99;75.96
19736;BME280;32064;49.310;8.646;2023-05-16T03:42:37;100291.56;;;16.02;75.77
19736;BME280;32064;49.310;8.646;2023-05-16T03:45:06;100290.03;;;16.00;75.61
19736;BME280;32064;49.310;8.646;2023-05-16T03:47:32;100287.91;;;16.03;75.36
19736;BME280;32064;49.310;8.646;2023-05-16T03:49:58;100293.22;;;16.03;75.82
19736;BME280;32064;49.310;8.646;2023-05-16T03:52:23;100297.41;;;16.06;75.59
19736;BME280;32064;49.310;8.646;2023-05-16T03:54:51;100298.13;;;15.98;75.98
19736;BME280;32064;49.310;8.646;2023-05-16T03:57:17;100303.19;;;15.91;76.53
19736;BME280;32064;49.310;8.646;2023-05-16T03:59:42;100308.50;;;15.91;76.42
19736;BME280;32064;49.310;8.646;2023-05-16T04:02:08;100309.16;;;15.93;75.47
19736;BME280;32064;49.310;8.646;2023-05-16T04:04:34;100317.69;;;15.97;76.20
19736;BME280;32064;49.310;8.646;2023-05-16T04:07:00;100313.91;;;16.00;75.00
19736;BME280;32064;49.310;8.646;2023-05-16T04:09:26;100315.44;;;16.02;75.10
19736;BME280;32064;49.310;8.646;2023-05-16T04:11:51;100324.53;;;16.00;75.54
19736;BME280;32064;49.310;8.646;2023-05-16T04:14:16;100317.97;;;15.94;75.79
19736;BME280;32064;49.310;8.646;2023-05-16T04:16:42;100323.84;;;15.88;75.09
19736;BME280;32064;49.310;8.646;2023-05-16T04:19:07;100327.06;;;15.91;76.03
19736;BME280;32064;49.310;8.646;2023-05-16T04:21:33;100331.78;;;15.98;75.33
19736;BME280;32064;49.310;8.646;2023-05-16T04:24:00;100334.03;;;15.92;74.52
19736;BME280;32064;49.310;8.646;2023-05-16T04:26:25;100338.78;;;15.89;75.55
19736;BME280;32064;49.310;8.646;2023-05-16T04:28:51;100338.91;;;15.87;74.92
19736;BME280;32064;49.310;8.646;2023-05-16T04:31:17;100339.66;;;15.80;74.88
19736;BME280;32064;49.310;8.646;2023-05-16T04:33:42;100341.03;;;15.84;75.84
19736;BME280;32064;49.310;8.646;2023-05-16T04:36:08;100341.00;;;15.93;74.82
19736;BME280;32064;49.310;8.646;2023-05-16T04:38:33;100341.56;;;15.97;74.74
19736;BME280;32064;49.310;8.646;2023-05-16T04:40:59;100339.91;;;15.86;75.57
19736;BME280;32064;49.310;8.646;2023-05-16T04:43:26;100342.56;;;15.86;75.29
19736;BME280;32064;49.310;8.646;2023-05-16T04:45:51;100356.53;;;15.88;74.47
19736;BME280;32064;49.310;8.646;2023-05-16T04:48:18;100349.25;;;15.90;75.68
19736;BME280;32064;49.310;8.646;2023-05-16T04:50:43;100351.78;;;15.92;74.40
19736;BME280;32064;49.310;8.646;2023-05-16T04:53:09;100365.16;;;15.90;74.67
19736;BME280;32064;49.310;8.646;2023-05-16T04:55:35;100356.91;;;15.93;75.10
19736;BME280;32064;49.310;8.646;2023-05-16T04:58:00;100365.59;;;15.96;75.68
19736;BME280;32064;49.310;8.646;2023-05-16T05:00:25;100368.66;;;16.01;74.37
19736;BME280;32064;49.310;8.646;2023-05-16T05:02:51;100372.84;;;15.93;75.49
19736;BME280;32064;49.310;8.646;2023-05-16T05:05:16;100370.75;;;15.97;73.99
19736;BME280;32064;49.310;8.646;2023-05-16T05:07:42;100368.56;;;15.83;74.80
19736;BME280;32064;49.310;8.646;2023-05-16T05:10:07;100369.34;;;15.93;74.48
19736;BME280;32064;49.310;8.646;2023-05-16T05:12:34;100370.47;;;16.00;74.34
19736;BME280;32064;49.310;8.646;2023-05-16T05:14:59;100366.28;;;15.98;75.24
19736;BME280;32064;49.310;8.646;2023-05-16T05:17:25;100367.66;;;16.02;74.04
19736;BME280;32064;49.310;8.646;2023-05-16T05:19:52;100382.03;;;16.09;73.89
19736;BME280;32064;49.310;8.646;2023-05-16T05:22:17;100374.50;;;16.14;74.17
19736;BME280;32064;49.310;8.646;2023-05-16T05:24:42;100378.50;;;16.18;74.46
19736;BME280;32064;49.310;8.646;2023-05-16T05:27:08;100380.34;;;16.17;73.86
19736;BME280;32064;49.310;8.646;2023-05-16T05:29:33;100376.84;;;16.17;73.36
19736;BME280;32064;49.310;8.646;2023-05-16T05:31:59;100378.50;;;16.18;74.77
19736;BME280;32064;49.310;8.646;2023-05-16T05:34:24;100373.63;;;16.23;73.88
19736;BME280;32064;49.310;8.646;2023-05-16T05:36:50;100382.41;;;16.24;73.52
19736;BME280;32064;49.310;8.646;2023-05-16T05:39:15;100381.16;;;16.28;73.34
19736;BME280;32064;49.310;8.646;2023-05-16T05:41:41;100381.81;;;16.30;74.41
19736;BME280;32064;49.310;8.646;2023-05-16T05:44:06;100389.66;;;16.31;73.65
19736;BME280;32064;49.310;8.646;2023-05-16T05:46:32;100384.75;;;16.36;74.26
19736;BME280;32064;49.310;8.646;2023-05-16T05:48:58;100381.94;;;16.38;73.28
19736;BME280;32064;49.310;8.646;2023-05-16T05:51:24;100379.03;;;16.31;73.94
19736;BME280;32064;49.310;8.646;2023-05-16T05:53:51;100391.19;;;16.34;73.92
19736;BME280;32064;49.310;8.646;2023-05-16T05:56:16;100395.25;;;16.28;74.43
19736;BME280;32064;49.310;8.646;2023-05-16T05:58:42;100384.34;;;16.31;74.58
19736;BME280;32064;49.310;8.646;2023-05-16T06:01:10;100392.28;;;16.41;73.75
19736;BME280;32064;49.310;8.646;2023-05-16T06:03:36;100395.75;;;16.42;74.38
19736;BME280;32064;49.310;8.646;2023-05-16T06:06:02;100386.63;;;16.54;73.65
19736;BME280;32064;49.310;8.646;2023-05-16T06:08:28;100399.28;;;16.70;73.66
19736;BME280;32064;49.310;8.646;2023-05-16T06:10:53;100405.97;;;16.74;72.52
19736;BME280;32064;49.310;8.646;2023-05-16T06:13:18;100403.63;;;16.71;73.59
19736;BME280;32064;49.310;8.646;2023-05-16T06:15:49;100407.44;;;16.58;72.73
19736;BME280;32064;49.310;8.646;2023-05-16T06:18:14;100407.53;;;16.67;73.50
19736;BME280;32064;49.310;8.646;2023-05-16T06:20:40;100408.38;;;16.77;72.57
19736;BME280;32064;49.310;8.646;2023-05-16T06:23:05;100411.81;;;16.87;73.61
19736;BME280;32064;49.310;8.646;2023-05-16T06:25:30;100414.19;;;16.90;72.50
19736;BME280;32064;49.310;8.646;2023-05-16T06:27:56;100415.06;;;16.81;72.91
19736;BME280;32064;49.310;8.646;2023-05-16T06:30:21;100414.03;;;16.92;71.73
19736;BME280;32064;49.310;8.646;2023-05-16T06:32:47;100416.53;;;16.93;72.06
19736;BME280;32064;49.310;8.646;2023-05-16T06:35:12;100409.41;;;16.94;71.83
19736;BME280;32064;49.310;8.646;2023-05-16T06:37:37;100420.03;;;16.94;71.69
19736;BME280;32064;49.310;8.646;2023-05-16T06:40:03;100427.31;;;16.92;71.17
19736;BME280;32064;49.310;8.646;2023-05-16T06:42:29;100435.88;;;16.86;72.09
19736;BME280;32064;49.310;8.646;2023-05-16T06:44:55;100430.97;;;16.91;71.58
19736;BME280;32064;49.310;8.646;2023-05-16T06:47:20;100439.72;;;17.01;71.03
19736;BME280;32064;49.310;8.646;2023-05-16T06:49:46;100438.03;;;17.00;70.92
19736;BME280;32064;49.310;8.646;2023-05-16T06:52:11;100434.94;;;17.04;70.79
19736;BME280;32064;49.310;8.646;2023-05-16T06:54:37;100432.50;;;16.93;71.48
19736;BME280;32064;49.310;8.646;2023-05-16T06:57:02;100440.59;;;16.92;71.83
19736;BME280;32064;49.310;8.646;2023-05-16T06:59:28;100448.63;;;16.72;71.19
19736;BME280;32064;49.310;8.646;2023-05-16T07:01:53;100451.75;;;16.68;70.47
19736;BME280;32064;49.310;8.646;2023-05-16T07:04:19;100450.63;;;16.60;71.36
19736;BME280;32064;49.310;8.646;2023-05-16T07:06:45;100457.19;;;16.66;72.23
19736;BME280;32064;49.310;8.646;2023-05-16T07:09:10;100461.78;;;16.74;70.52
19736;BME280;32064;49.310;8.646;2023-05-16T07:11:36;100454.47;;;16.86;71.22
19736;BME280;32064;49.310;8.646;2023-05-16T07:14:01;100462.69;;;16.92;71.00
19736;BME280;32064;49.310;8.646;2023-05-16T07:16:27;100469.09;;;16.99;71.41
19736;BME280;32064;49.310;8.646;2023-05-16T07:18:53;100460.25;;;17.09;70.71
19736;BME280;32064;49.310;8.646;2023-05-16T07:21:18;100448.25;;;17.04;71.37
19736;BME280;32064;49.310;8.646;2023-05-16T07:23:44;100450.00;;;17.14;70.61
19736;BME280;32064;49.310;8.646;2023-05-16T07:26:09;100455.16;;;17.15;70.48
19736;BME280;32064;49.310;8.646;2023-05-16T07:28:35;100454.69;;;17.02;71.00
19736;BME280;32064;49.310;8.646;2023-05-16T07:31:00;100449.78;;;17.07;70.72
19736;BME280;32064;49.310;8.646;2023-05-16T07:33:26;100448.53;;;17.01;70.70
19736;BME280;32064;49.310;8.646;2023-05-16T07:35:51;100460.44;;;16.97;70.02
19736;BME280;32064;49.310;8.646;2023-05-16T07:38:19;100457.97;;;16.86;70.08
19736;BME280;32064;49.310;8.646;2023-05-16T07:40:45;100462.03;;;16.90;70.13
19736;BME280;32064;49.310;8.646;2023-05-16T07:43:10;100472.59;;;17.00;70.69
19736;BME280;32064;49.310;8.646;2023-05-16T07:45:36;100465.84;;;17.05;71.79
19736;BME280;32064;49.310;8.646;2023-05-16T07:48:01;100470.88;;;17.09;70.38
19736;BME280;32064;49.310;8.646;2023-05-16T07:50:27;100476.19;;;17.09;70.24
19736;BME280;32064;49.310;8.646;2023-05-16T07:52:52;100463.72;;;17.09;71.39
19736;BME280;32064;49.310;8.646;2023-05-16T07:55:18;100474.97;;;17.03;69.88
19736;BME280;32064;49.310;8.646;2023-05-16T07:57:43;100477.78;;;17.01;69.72
19736;BME280;32064;49.310;8.646;2023-05-16T08:00:09;100484.78;;;16.93;69.58
19736;BME280;32064;49.310;8.646;2023-05-16T08:02:35;100482.53;;;16.98;70.80
19736;BME280;32064;49.310;8.646;2023-05-16T08:05:00;100480.56;;;17.00;68.66
19736;BME280;32064;49.310;8.646;2023-05-16T08:07:26;100483.75;;;17.03;70.05
19736;BME280;32064;49.310;8.646;2023-05-16T08:09:52;100471.97;;;16.88;68.62
19736;BME280;32064;49.310;8.646;2023-05-16T08:12:17;100481.88;;;16.86;68.79
19736;BME280;32064;49.310;8.646;2023-05-16T08:14:43;100478.41;;;16.86;68.84
19736;BME280;32064;49.310;8.646;2023-05-16T08:17:08;100485.44;;;16.77;70.23
19736;BME280;32064;49.310;8.646;2023-05-16T08:19:34;100491.03;;;16.64;69.17
19736;BME280;32064;49.310;8.646;2023-05-16T08:22:00;100487.41;;;16.65;69.47
19736;BME280;32064;49.310;8.646;2023-05-16T08:24:26;100500.72;;;16.46;70.15
19736;BME280;32064;49.310;8.646;2023-05-16T08:26:51;100496.78;;;16.50;71.21
19736;BME280;32064;49.310;8.646;2023-05-16T08:29:16;100496.78;;;16.59;70.09
19736;BME280;32064;49.310;8.646;2023-05-16T08:31:42;100499.16;;;16.53;70.22
19736;BME280;32064;49.310;8.646;2023-05-16T08:34:07;100498.94;;;16.36;71.03
19736;BME280;32064;49.310;8.646;2023-05-16T08:36:35;100504.25;;;16.36;70.49
19736;BME280;32064;49.310;8.646;2023-05-16T08:39:00;100500.72;;;16.36;69.63
19736;BME280;32064;49.310;8.646;2023-05-16T08:41:26;100503.66;;;16.33;69.38
19736;BME280;32064;49.310;8.646;2023-05-16T08:43:51;100506.78;;;16.28;68.64
19736;BME280;32064;49.310;8.646;2023-05-16T08:46:21;100510.41;;;16.37;69.29
19736;BME280;32064;49.310;8.646;2023-05-16T08:48:52;100507.28;;;16.42;67.43
19736;BME280;32064;49.310;8.646;2023-05-16T08:51:19;100504.75;;;16.59;67.48
19736;BME280;32064;49.310;8.646;2023-05-16T08:53:51;100506.94;;;16.74;66.39
19736;BME280;32064;49.310;8.646;2023-05-16T08:56:19;100504.13;;;16.75;66.51
19736;BME280;32064;49.310;8.646;2023-05-16T08:58:47;100500.50;;;16.86;65.56
19736;BME280;32064;49.310;8.646;2023-05-16T09:01:13;100502.13;;;16.97;65.45
19736;BME280;32064;49.310;8.646;2023-05-16T09:03:39;100503.72;;;17.17;65.11
19736;BME280;32064;49.310;8.646;2023-05-16T09:06:06;100506.16;;;17.56;65.46
19736;BME280;32064;49.310;8.646;2023-05-16T09:08:32;100497.84;;;17.87;63.86
19736;BME280;32064;49.310;8.646;2023-05-16T09:10:57;100505.66;;;18.06;64.40
19736;BME280;32064;49.310;8.646;2023-05-16T09:13:24;100502.63;;;18.45;62.58
19736;BME280;32064;49.310;8.646;2023-05-16T09:16:11;100505.06;;;18.65;60.60
19736;BME280;32064;49.310;8.646;2023-05-16T09:18:38;100515.34;;;19.12;59.54
19736;BME280;32064;49.310;8.646;2023-05-16T09:21:05;100498.94;;;19.41;59.49
19736;BME280;32064;49.310;8.646;2023-05-16T09:23:32;100510.06;;;20.69;57.08
19736;BME280;32064;49.310;8.646;2023-05-16T09:25:58;100500.38;;;20.35;57.56
19736;BME280;32064;49.310;8.646;2023-05-16T09:28:24;100509.41;;;20.42;57.94
19736;BME280;32064;49.310;8.646;2023-05-16T09:30:51;100510.59;;;20.64;57.08
19736;BME280;32064;49.310;8.646;2023-05-16T09:33:17;100508.66;;;21.91;54.06
19736;BME280;32064;49.310;8.646;2023-05-16T09:35:42;100507.84;;;22.51;53.79
19736;BME280;32064;49.310;8.646;2023-05-16T09:38:16;100515.16;;;22.57;52.94
19736;BME280;32064;49.310;8.646;2023-05-16T09:40:41;100515.91;;;22.81;52.45
19736;BME280;32064;49.310;8.646;2023-05-16T09:43:07;100524.38;;;24.66;50.35
19736;BME280;32064;49.310;8.646;2023-05-16T09:45:36;100525.47;;;24.50;49.09
19736;BME280;32064;49.310;8.646;2023-05-16T09:48:08;100532.16;;;24.89;47.14
19736;BME280;32064;49.310;8.646;2023-05-16T09:50:35;100534.88;;;24.61;47.91
19736;BME280;32064;49.310;8.646;2023-05-16T09:53:02;100534.03;;;25.30;46.43
19736;BME280;32064;49.310;8.646;2023-05-16T09:55:27;100517.88;;;26.18;45.04
19736;BME280;32064;49.310;8.646;2023-05-16T09:57:53;100527.00;;;25.97;44.70
19736;BME280;32064;49.310;8.646;2023-05-16T10:00:19;100521.84;;;26.29;43.57
19736;BME280;32064;49.310;8.646;2023-05-16T10:02:45;100526.41;;;26.15;44.94
19736;BME280;32064;49.310;8.646;2023-05-16T10:05:12;100526.13;;;25.76;43.99
19736;BME280;32064;49.310;8.646;2023-05-16T10:07:38;100529.28;;;26.07;43.85
19736;BME280;32064;49.310;8.646;2023-05-16T10:10:07;100539.81;;;27.08;41.99
19736;BME280;32064;49.310;8.646;2023-05-16T10:12:34;100545.16;;;27.35;41.61
19736;BME280;32064;49.310;8.646;2023-05-16T10:15:02;100537.97;;;27.53;42.04
19736;BME280;32064;49.310;8.646;2023-05-16T10:17:30;100551.34;;;26.57;42.40
19736;BME280;32064;49.310;8.646;2023-05-16T10:19:57;100535.03;;;24.87;44.39
19736;BME280;32064;49.310;8.646;2023-05-16T10:22:25;100548.16;;;23.62;45.38
19736;BME280;32064;49.310;8.646;2023-05-16T10:24:57;100539.44;;;22.41;48.10
19736;BME280;32064;49.310;8.646;2023-05-16T10:27:25;100546.97;;;22.00;47.86
19736;BME280;32064;49.310;8.646;2023-05-16T10:29:51;100544.72;;;21.57;48.93
19736;BME280;32064;49.310;8.646;2023-05-16T10:32:17;100564.81;;;20.97;50.14
19736;BME280;32064;49.310;8.646;2023-05-16T10:34:44;100567.03;;;20.36;50.14
19736;BME280;32064;49.310;8.646;2023-05-16T10:37:10;100560.50;;;20.06;51.00
19736;BME280;32064;49.310;8.646;2023-05-16T10:39:37;100572.00;;;19.82;51.20
19736;BME280;32064;49.310;8.646;2023-05-16T10:42:04;100567.03;;;19.53;51.98
19736;BME280;32064;49.310;8.646;2023-05-16T10:44:31;100567.38;;;19.16;52.46
19736;BME280;32064;49.310;8.646;2023-05-16T10:46:58;100569.22;;;19.15;51.64
19736;BME280;32064;49.310;8.646;2023-05-16T10:49:26;100570.28;;;18.96;52.17
19736;BME280;32064;49.310;8.646;2023-05-16T10:52:07;100572.78;;;18.98;52.31
19736;BME280;32064;49.310;8.646;2023-05-16T10:54:37;100563.78;;;19.25;52.09
19736;BME280;32064;49.310;8.646;2023-05-16T10:57:05;100576.88;;;19.52;51.97
19736;BME280;32064;49.310;8.646;2023-05-16T10:59:42;100573.25;;;19.27;51.64
19736;BME280;32064;49.310;8.646;2023-05-16T11:02:28;100570.25;;;19.65;51.92
19736;BME280;32064;49.310;8.646;2023-05-16T11:04:55;100574.50;;;19.92;50.90
19736;BME280;32064;49.310;8.646;2023-05-16T11:07:22;100575.19;;;19.94;50.85
19736;BME280;32064;49.310;8.646;2023-05-16T11:10:21;100597.16;;;19.71;51.32
19736;BME280;32064;49.310;8.646;2023-05-16T11:12:50;100584.13;;;19.68;51.14
19736;BME280;32064;49.310;8.646;2023-05-16T11:15:22;100584.59;;;19.64;50.33
19736;BME280;32064;49.310;8.646;2023-05-16T11:17:49;100589.81;;;19.65;51.20
19736;BME280;32064;49.310;8.646;2023-05-16T11:20:25;100602.56;;;19.45;51.25
19736;BME280;32064;49.310;8.646;2023-05-16T11:25:41;100597.53;;;19.42;51.93
19736;BME280;32064;49.310;8.646;2023-05-16T11:28:09;100606.72;;;19.48;52.17
19736;BME280;32064;49.310;8.646;2023-05-16T11:30:35;100600.81;;;19.28;52.46
19736;BME280;32064;49.310;8.646;2023-05-16T11:33:00;100613.59;;;19.24;53.41
19736;BME280;32064;49.310;8.646;2023-05-16T11:35:26;100609.16;;;19.07;53.26
19736;BME280;32064;49.310;8.646;2023-05-16T11:37:52;100616.59;;;18.95;52.82
19736;BME280;32064;49.310;8.646;2023-05-16T11:40:18;100612.72;;;18.90;53.56
19736;BME280;32064;49.310;8.646;2023-05-16T11:42:45;100611.38;;;18.86;53.40
19736;BME280;32064;49.310;8.646;2023-05-16T11:47:38;100595.94;;;18.53;53.23
19736;BME280;32064;49.310;8.646;2023-05-16T11:50:11;100596.69;;;18.63;53.40
19736;BME280;32064;49.310;8.646;2023-05-16T11:52:37;100605.81;;;18.79;53.34
19736;BME280;32064;49.310;8.646;2023-05-16T11:55:04;100596.88;;;18.26;54.35
19736;BME280;32064;49.310;8.646;2023-05-16T11:57:31;100617.59;;;18.32;53.41
19736;BME280;32064;49.310;8.646;2023-05-16T12:00:04;100610.22;;;18.26;53.49
19736;BME280;32064;49.310;8.646;2023-05-16T12:02:35;100618.56;;;18.49;53.38
19736;BME280;32064;49.310;8.646;2023-05-16T12:05:06;100620.53;;;18.47;53.36
19736;BME280;32064;49.310;8.646;2023-05-16T12:07:34;100617.69;;;18.67;52.92
19736;BME280;32064;49.310;8.646;2023-05-16T12:10:04;100627.69;;;18.82;53.90
19736;BME280;32064;49.310;8.646;2023-05-16T12:12:29;100623.41;;;18.72;53.29
19736;BME280;32064;49.310;8.646;2023-05-16T12:14:55;100622.56;;;18.89;53.50
19736;BME280;32064;49.310;8.646;2023-05-16T12:17:20;100634.50;;;19.03;52.69
19736;BME280;32064;49.310;8.646;2023-05-16T12:19:46;100624.19;;;19.08;52.63
19736;BME280;32064;49.310;8.646;2023-05-16T12:22:18;100629.94;;;19.21;52.30
19736;BME280;32064;49.310;8.646;2023-05-16T12:24:44;100623.53;;;19.40;52.73
19736;BME280;32064;49.310;8.646;2023-05-16T12:27:10;100620.91;;;19.48;53.00
19736;BME280;32064;49.310;8.646;2023-05-16T12:29:37;100629.75;;;19.49;52.95
19736;BME280;32064;49.310;8.646;2023-05-16T12:32:02;100632.28;;;19.50;52.30
19736;BME280;32064;49.310;8.646;2023-05-16T12:34:29;100629.09;;;19.55;52.84
19736;BME280;32064;49.310;8.646;2023-05-16T12:36:55;100632.97;;;19.61;52.93
19736;BME280;32064;49.310;8.646;2023-05-16T12:39:20;100626.34;;;19.39;52.62
19736;BME280;32064;49.310;8.646;2023-05-16T12:41:47;100638.19;;;19.10;53.44
19736;BME280;32064;49.310;8.646;2023-05-16T12:44:17;100638.16;;;19.36;52.99
19736;BME280;32064;49.310;8.646;2023-05-16T12:46:49;100632.56;;;19.47;53.38
19736;BME280;32064;49.310;8.646;2023-05-16T12:49:19;100639.44;;;19.58;51.97
19736;BME280;32064;49.310;8.646;2023-05-16T12:51:52;100640.47;;;19.57;52.73
19736;BME280;32064;49.310;8.646;2023-05-16T12:54:18;100646.88;;;19.38;52.10
19736;BME280;32064;49.310;8.646;2023-05-16T12:56:44;100648.22;;;19.16;52.83
19736;BME280;32064;49.310;8.646;2023-05-16T12:59:10;100646.06;;;18.94;53.40
19736;BME280;32064;49.310;8.646;2023-05-16T13:01:39;100643.34;;;18.68;52.69
19736;BME280;32064;49.310;8.646;2023-05-16T13:04:05;100643.69;;;18.29;52.74
19736;BME280;32064;49.310;8.646;2023-05-16T13:06:30;100644.53;;;18.29;52.67
19736;BME280;32064;49.310;8.646;2023-05-16T13:08:56;100647.72;;;18.33;53.10